sensor_id;sensor_type;location;lat;lon;timestamp;temperature;humidity
5621;DHT22;2832;50.864;12.186;2022-09-02T00:02:01;20.30;93.90
5621;DHT22;2832;50.864;12.186;2022-09-02T00:04:31;20.30;93.90
5621;DHT22;2832;50.864;12.186;2022-09-02T00:06:59;20.30;94.00
5621;DHT22;2832;50.864;12.186;2022-09-02T02:10:24;19.40;94.10
5621;DHT22;2832;50.864;12.186;2022-09-02T02:25:48;19.30;94.10
5621;DHT22;2832;50.864;12.186;2022-09-02T02:28:23;19.30;94.10
5621;DHT22;2832;50.864;12.186;2022-09-02T02:31:01;19.30;94.10
5621;DHT22;2832;50.864;12.186;2022-09-02T02:33:30;19.30;94.10
5621;DHT22;2832;50.864;12.186;2022-09-02T02:35:59;19.30;94.10
5621;DHT22;2832;50.864;12.186;2022-09-02T02:38:42;19.30;94.10
5621;DHT22;2832;50.864;12.186;2022-09-02T02:41:21;19.20;94.20
5621;DHT22;2832;50.864;12.186;2022-09-02T02:43:56;19.20;94.20
5621;DHT22;2832;50.864;12.186;2022-09-02T02:46:38;19.20;94.50
5621;DHT22;2832;50.864;12.186;2022-09-02T02:49:13;19.20;94.20
5621;DHT22;2832;50.864;12.186;2022-09-02T02:51:51;19.10;94.10
5621;DHT22;2832;50.864;12.186;2022-09-02T02:54:35;19.10;94.20
5621;DHT22;2832;50.864;12.186;2022-09-02T02:57:13;19.10;94.20
5621;DHT22;2832;50.864;12.186;2022-09-02T02:59:44;19.10;94.20
5621;DHT22;2832;50.864;12.186;2022-09-02T03:02:30;19.10;94.10
5621;DHT22;2832;50.864;12.186;2022-09-02T03:05:13;19.00;94.10
5621;DHT22;2832;50.864;12.186;2022-09-02T03:07:52;19.00;94.00
5621;DHT22;2832;50.864;12.186;2022-09-02T03:10:29;19.00;94.00
5621;DHT22;2832;50.864;12.186;2022-09-02T03:12:59;19.00;94.00
5621;DHT22;2832;50.864;12.186;2022-09-02T03:15:28;19.00;94.00
5621;DHT22;2832;50.864;12.186;2022-09-02T03:17:56;19.00;94.00
5621;DHT22;2832;50.864;12.186;2022-09-02T03:20:25;19.00;94.00
5621;DHT22;2832;50.864;12.186;2022-09-02T03:22:58;19.00;94.00
5621;DHT22;2832;50.864;12.186;2022-09-02T04:27:46;17.80;94.30
5621;DHT22;2832;50.864;12.186;2022-09-02T04:30:14;17.70;94.30
5621;DHT22;2832;50.864;12.186;2022-09-02T04:32:43;17.70;94.20
5621;DHT22;2832;50.864;12.186;2022-09-02T04:35:11;17.60;94.20
5621;DHT22;2832;50.864;12.186;2022-09-02T04:37:39;17.70;94.30
5621;DHT22;2832;50.864;12.186;2022-09-02T04:40:09;17.60;94.20
5621;DHT22;2832;50.864;12.186;2022-09-02T04:42:42;17.60;94.30
5621;DHT22;2832;50.864;12.186;2022-09-02T04:45:12;17.60;94.20
5621;DHT22;2832;50.864;12.186;2022-09-02T04:47:40;17.60;94.30
5621;DHT22;2832;50.864;12.186;2022-09-02T04:50:08;17.50;94.40
5621;DHT22;2832;50.864;12.186;2022-09-02T04:52:38;17.50;94.30
5621;DHT22;2832;50.864;12.186;2022-09-02T04:55:08;17.50;94.30
5621;DHT22;2832;50.864;12.186;2022-09-02T04:57:38;17.50;94.30
5621;DHT22;2832;50.864;12.186;2022-09-02T05:00:14;17.40;94.30
5621;DHT22;2832;50.864;12.186;2022-09-02T05:02:53;17.40;94.40
5621;DHT22;2832;50.864;12.186;2022-09-02T05:05:32;17.40;94.50
5621;DHT22;2832;50.864;12.186;2022-09-02T05:08:01;17.40;94.50
5621;DHT22;2832;50.864;12.186;2022-09-02T05:10:33;17.40;94.60
5621;DHT22;2832;50.864;12.186;2022-09-02T05:13:00;17.40;94.70
5621;DHT22;2832;50.864;12.186;2022-09-02T05:15:37;17.40;94.70
5621;DHT22;2832;50.864;12.186;2022-09-02T05:18:06;17.40;94.70
5621;DHT22;2832;50.864;12.186;2022-09-02T05:20:39;17.40;94.80
5621;DHT22;2832;50.864;12.186;2022-09-02T05:23:09;17.40;94.80
5621;DHT22;2832;50.864;12.186;2022-09-02T05:25:37;17.30;94.80
5621;DHT22;2832;50.864;12.186;2022-09-02T06:27:29;17.40;96.40
5621;DHT22;2832;50.864;12.186;2022-09-02T06:29:57;17.50;96.50
5621;DHT22;2832;50.864;12.186;2022-09-02T06:32:26;17.40;96.60
5621;DHT22;2832;50.864;12.186;2022-09-02T06:34:54;17.40;96.60
5621;DHT22;2832;50.864;12.186;2022-09-02T06:37:22;17.50;96.60
5621;DHT22;2832;50.864;12.186;2022-09-02T06:39:50;17.50;96.70
5621;DHT22;2832;50.864;12.186;2022-09-02T06:42:17;17.50;96.80
5621;DHT22;2832;50.864;12.186;2022-09-02T06:44:47;17.50;96.80
5621;DHT22;2832;50.864;12.186;2022-09-02T06:47:15;17.50;96.80
5621;DHT22;2832;50.864;12.186;2022-09-02T06:49:49;17.50;96.90
5621;DHT22;2832;50.864;12.186;2022-09-02T06:52:17;17.60;97.00
5621;DHT22;2832;50.864;12.186;2022-09-02T06:54:45;17.60;97.00
5621;DHT22;2832;50.864;12.186;2022-09-02T06:57:14;17.60;96.90
5621;DHT22;2832;50.864;12.186;2022-09-02T06:59:42;17.70;96.90
5621;DHT22;2832;50.864;12.186;2022-09-02T07:02:12;17.70;96.90
5621;DHT22;2832;50.864;12.186;2022-09-02T07:04:40;17.70;96.90
5621;DHT22;2832;50.864;12.186;2022-09-02T07:07:41;17.70;97.00
5621;DHT22;2832;50.864;12.186;2022-09-02T07:10:14;17.80;97.00
5621;DHT22;2832;50.864;12.186;2022-09-02T07:12:42;17.80;96.90
5621;DHT22;2832;50.864;12.186;2022-09-02T07:15:11;17.90;97.00
5621;DHT22;2832;50.864;12.186;2022-09-02T07:17:46;17.90;97.00
5621;DHT22;2832;50.864;12.186;2022-09-02T07:20:28;17.90;97.00
5621;DHT22;2832;50.864;12.186;2022-09-02T07:22:57;17.90;97.10
5621;DHT22;2832;50.864;12.186;2022-09-02T07:25:25;18.00;97.20
5621;DHT22;2832;50.864;12.186;2022-09-02T09:29:37;19.20;95.20
5621;DHT22;2832;50.864;12.186;2022-09-02T09:32:11;19.30;95.40
5621;DHT22;2832;50.864;12.186;2022-09-02T09:35:03;19.30;95.60
5621;DHT22;2832;50.864;12.186;2022-09-02T09:37:35;19.30;94.60
5621;DHT22;2832;50.864;12.186;2022-09-02T09:40:28;19.30;95.00
5621;DHT22;2832;50.864;12.186;2022-09-02T09:43:10;19.60;92.00
5621;DHT22;2832;50.864;12.186;2022-09-02T09:45:43;19.30;92.10
5621;DHT22;2832;50.864;12.186;2022-09-02T09:48:19;19.20;92.40
5621;DHT22;2832;50.864;12.186;2022-09-02T09:51:14;19.20;92.30
5621;DHT22;2832;50.864;12.186;2022-09-02T09:53:47;19.20;92.60
5621;DHT22;2832;50.864;12.186;2022-09-02T09:56:28;19.40;91.90
5621;DHT22;2832;50.864;12.186;2022-09-02T09:58:58;19.30;91.90
5621;DHT22;2832;50.864;12.186;2022-09-02T10:01:30;19.40;91.90
5621;DHT22;2832;50.864;12.186;2022-09-02T10:04:02;19.40;91.80
5621;DHT22;2832;50.864;12.186;2022-09-02T10:06:39;19.40;91.90
5621;DHT22;2832;50.864;12.186;2022-09-02T10:09:29;19.50;91.90
5621;DHT22;2832;50.864;12.186;2022-09-02T10:12:03;19.50;91.90
5621;DHT22;2832;50.864;12.186;2022-09-02T10:14:37;19.40;92.00
5621;DHT22;2832;50.864;12.186;2022-09-02T10:17:33;19.50;91.90
5621;DHT22;2832;50.864;12.186;2022-09-02T10:20:13;19.40;91.80
5621;DHT22;2832;50.864;12.186;2022-09-02T10:23:11;19.50;92.00
5621;DHT22;2832;50.864;12.186;2022-09-02T10:25:55;19.40;92.00
5621;DHT22;2832;50.864;12.186;2022-09-02T10:28:42;19.30;91.40
5621;DHT22;2832;50.864;12.186;2022-09-02T10:31:18;19.40;91.50
5621;DHT22;2832;50.864;12.186;2022-09-02T10:34:01;19.30;91.30
5621;DHT22;2832;50.864;12.186;2022-09-02T10:36:59;19.40;91.30
5621;DHT22;2832;50.864;12.186;2022-09-02T10:39:44;19.40;91.40
5621;DHT22;2832;50.864;12.186;2022-09-02T10:42:45;19.50;91.70
5621;DHT22;2832;50.864;12.186;2022-09-02T10:45:40;19.70;91.40
5621;DHT22;2832;50.864;12.186;2022-09-02T10:48:25;19.80;90.80
5621;DHT22;2832;50.864;12.186;2022-09-02T10:51:03;19.90;90.90
5621;DHT22;2832;50.864;12.186;2022-09-02T10:53:42;19.80;89.80
5621;DHT22;2832;50.864;12.186;2022-09-02T10:56:16;19.80;90.00
5621;DHT22;2832;50.864;12.186;2022-09-02T10:58:52;19.90;88.60
5621;DHT22;2832;50.864;12.186;2022-09-02T11:01:24;19.90;88.60
5621;DHT22;2832;50.864;12.186;2022-09-02T11:04:07;19.90;89.10
5621;DHT22;2832;50.864;12.186;2022-09-02T11:06:40;19.90;89.20
5621;DHT22;2832;50.864;12.186;2022-09-02T11:09:18;20.00;89.40
5621;DHT22;2832;50.864;12.186;2022-09-02T11:11:52;19.90;87.30
5621;DHT22;2832;50.864;12.186;2022-09-02T11:14:31;19.80;88.10
5621;DHT22;2832;50.864;12.186;2022-09-02T11:17:09;19.90;88.50
5621;DHT22;2832;50.864;12.186;2022-09-02T11:19:48;19.90;88.10
5621;DHT22;2832;50.864;12.186;2022-09-02T11:22:23;20.00;87.50
5621;DHT22;2832;50.864;12.186;2022-09-02T11:25:07;20.00;86.80
5621;DHT22;2832;50.864;12.186;2022-09-02T11:27:42;20.00;87.20
5621;DHT22;2832;50.864;12.186;2022-09-02T11:30:15;19.90;85.80
5621;DHT22;2832;50.864;12.186;2022-09-02T13:37:29;20.70;80.80
5621;DHT22;2832;50.864;12.186;2022-09-02T13:39:58;20.60;80.40
5621;DHT22;2832;50.864;12.186;2022-09-02T13:42:28;20.60;80.90
5621;DHT22;2832;50.864;12.186;2022-09-02T13:45:11;20.60;81.20
5621;DHT22;2832;50.864;12.186;2022-09-02T13:47:44;20.60;81.70
5621;DHT22;2832;50.864;12.186;2022-09-02T13:50:16;20.70;81.90
5621;DHT22;2832;50.864;12.186;2022-09-02T13:53:07;20.70;80.70
5621;DHT22;2832;50.864;12.186;2022-09-02T13:55:49;20.70;81.20
5621;DHT22;2832;50.864;12.186;2022-09-02T13:58:39;20.70;81.00
5621;DHT22;2832;50.864;12.186;2022-09-02T14:01:22;20.50;80.90
5621;DHT22;2832;50.864;12.186;2022-09-02T14:03:52;20.50;81.50
5621;DHT22;2832;50.864;12.186;2022-09-02T14:06:23;20.50;81.60
5621;DHT22;2832;50.864;12.186;2022-09-02T14:08:55;20.60;82.30
5621;DHT22;2832;50.864;12.186;2022-09-02T14:11:31;20.70;81.60
5621;DHT22;2832;50.864;12.186;2022-09-02T14:14:01;20.60;81.70
5621;DHT22;2832;50.864;12.186;2022-09-02T14:16:34;20.60;81.90
5621;DHT22;2832;50.864;12.186;2022-09-02T14:19:04;20.60;81.50
5621;DHT22;2832;50.864;12.186;2022-09-02T14:21:34;20.60;81.50
5621;DHT22;2832;50.864;12.186;2022-09-02T14:24:11;20.60;80.90
5621;DHT22;2832;50.864;12.186;2022-09-02T14:26:42;20.50;81.40
5621;DHT22;2832;50.864;12.186;2022-09-02T14:29:14;20.70;81.90
5621;DHT22;2832;50.864;12.186;2022-09-02T14:32:00;20.60;81.40
5621;DHT22;2832;50.864;12.186;2022-09-02T14:35:08;20.60;81.10
5621;DHT22;2832;50.864;12.186;2022-09-02T15:36:57;20.60;79.70
5621;DHT22;2832;50.864;12.186;2022-09-02T15:39:26;20.80;80.20
5621;DHT22;2832;50.864;12.186;2022-09-02T15:41:54;20.70;79.80
5621;DHT22;2832;50.864;12.186;2022-09-02T15:44:22;20.80;78.80
5621;DHT22;2832;50.864;12.186;2022-09-02T15:46:58;20.80;79.50
5621;DHT22;2832;50.864;12.186;2022-09-02T15:49:30;20.80;79.90
5621;DHT22;2832;50.864;12.186;2022-09-02T15:52:02;20.80;79.70
5621;DHT22;2832;50.864;12.186;2022-09-02T15:54:31;20.90;79.90
5621;DHT22;2832;50.864;12.186;2022-09-02T15:57:00;20.90;80.40
5621;DHT22;2832;50.864;12.186;2022-09-02T15:59:28;20.90;80.60
5621;DHT22;2832;50.864;12.186;2022-09-02T16:01:56;21.00;80.70
5621;DHT22;2832;50.864;12.186;2022-09-02T16:04:30;21.00;81.10
5621;DHT22;2832;50.864;12.186;2022-09-02T16:07:07;20.90;80.30
5621;DHT22;2832;50.864;12.186;2022-09-02T16:09:36;20.70;80.90
5621;DHT22;2832;50.864;12.186;2022-09-02T17:12:02;20.50;82.20
5621;DHT22;2832;50.864;12.186;2022-09-02T17:14:43;20.40;82.30
5621;DHT22;2832;50.864;12.186;2022-09-02T17:17:14;20.10;82.70
5621;DHT22;2832;50.864;12.186;2022-09-02T17:19:42;20.10;83.00
5621;DHT22;2832;50.864;12.186;2022-09-02T17:22:23;20.00;83.50
5621;DHT22;2832;50.864;12.186;2022-09-02T17:25:34;20.00;83.60
5621;DHT22;2832;50.864;12.186;2022-09-02T17:28:04;20.00;84.00
5621;DHT22;2832;50.864;12.186;2022-09-02T17:30:33;20.00;84.00
5621;DHT22;2832;50.864;12.186;2022-09-02T17:33:01;20.00;84.20
5621;DHT22;2832;50.864;12.186;2022-09-02T17:35:30;20.00;84.00
5621;DHT22;2832;50.864;12.186;2022-09-02T17:38:01;20.00;84.30
5621;DHT22;2832;50.864;12.186;2022-09-02T17:40:30;20.10;84.40
5621;DHT22;2832;50.864;12.186;2022-09-02T17:43:31;20.20;84.20
5621;DHT22;2832;50.864;12.186;2022-09-02T17:46:08;20.20;83.80
5621;DHT22;2832;50.864;12.186;2022-09-02T17:48:37;20.30;84.10
5621;DHT22;2832;50.864;12.186;2022-09-02T17:51:07;20.30;83.90
5621;DHT22;2832;50.864;12.186;2022-09-02T17:53:38;20.20;84.00
5621;DHT22;2832;50.864;12.186;2022-09-02T17:59:28;20.30;84.20
5621;DHT22;2832;50.864;12.186;2022-09-02T18:05:15;20.30;84.30
5621;DHT22;2832;50.864;12.186;2022-09-02T18:07:51;20.50;84.10
5621;DHT22;2832;50.864;12.186;2022-09-02T18:10:32;20.70;84.10
5621;DHT22;2832;50.864;12.186;2022-09-02T18:13:04;20.80;83.80
5621;DHT22;2832;50.864;12.186;2022-09-02T18:15:43;20.80;83.60
5621;DHT22;2832;50.864;12.186;2022-09-02T18:18:14;21.00;83.70
5621;DHT22;2832;50.864;12.186;2022-09-02T18:20:47;21.00;83.40
5621;DHT22;2832;50.864;12.186;2022-09-02T18:23:36;21.10;83.10
5621;DHT22;2832;50.864;12.186;2022-09-02T18:26:14;21.10;83.30
5621;DHT22;2832;50.864;12.186;2022-09-02T18:28:54;21.10;83.20
5621;DHT22;2832;50.864;12.186;2022-09-02T18:31:38;21.00;83.30
5621;DHT22;2832;50.864;12.186;2022-09-02T18:34:29;20.80;83.20
5621;DHT22;2832;50.864;12.186;2022-09-02T18:37:09;20.90;83.50
5621;DHT22;2832;50.864;12.186;2022-09-02T18:39:56;20.90;83.10
5621;DHT22;2832;50.864;12.186;2022-09-02T18:42:39;20.70;83.60
5621;DHT22;2832;50.864;12.186;2022-09-02T18:45:19;20.80;83.80
5621;DHT22;2832;50.864;12.186;2022-09-02T18:48:06;20.90;83.80
5621;DHT22;2832;50.864;12.186;2022-09-02T18:50:52;21.00;83.70
5621;DHT22;2832;50.864;12.186;2022-09-02T18:53:32;21.10;83.80
5621;DHT22;2832;50.864;12.186;2022-09-02T18:56:06;21.10;83.60
5621;DHT22;2832;50.864;12.186;2022-09-02T18:58:47;20.90;83.80
5621;DHT22;2832;50.864;12.186;2022-09-02T19:01:25;20.70;84.20
5621;DHT22;2832;50.864;12.186;2022-09-02T19:04:10;20.90;84.40
5621;DHT22;2832;50.864;12.186;2022-09-02T19:06:46;21.10;84.10
5621;DHT22;2832;50.864;12.186;2022-09-02T19:09:15;21.10;84.30
5621;DHT22;2832;50.864;12.186;2022-09-02T19:11:46;21.20;84.30
5621;DHT22;2832;50.864;12.186;2022-09-02T20:13:56;21.20;86.00
5621;DHT22;2832;50.864;12.186;2022-09-02T20:16:25;21.20;86.00
5621;DHT22;2832;50.864;12.186;2022-09-02T20:18:54;21.20;85.90
5621;DHT22;2832;50.864;12.186;2022-09-02T20:21:25;21.30;85.90
5621;DHT22;2832;50.864;12.186;2022-09-02T20:23:54;21.30;86.00
5621;DHT22;2832;50.864;12.186;2022-09-02T20:26:45;21.30;86.10
5621;DHT22;2832;50.864;12.186;2022-09-02T20:29:27;21.30;86.20
5621;DHT22;2832;50.864;12.186;2022-09-02T20:32:04;21.30;86.30
5621;DHT22;2832;50.864;12.186;2022-09-02T20:34:50;21.30;86.50
5621;DHT22;2832;50.864;12.186;2022-09-02T20:37:33;21.30;86.70
5621;DHT22;2832;50.864;12.186;2022-09-02T20:40:27;21.20;86.90
5621;DHT22;2832;50.864;12.186;2022-09-02T20:43:31;21.20;87.10
5621;DHT22;2832;50.864;12.186;2022-09-02T20:46:28;21.20;87.40
5621;DHT22;2832;50.864;12.186;2022-09-02T20:49:14;21.20;87.40
5621;DHT22;2832;50.864;12.186;2022-09-02T20:51:55;21.20;87.60
5621;DHT22;2832;50.864;12.186;2022-09-02T20:54:35;21.20;87.70
5621;DHT22;2832;50.864;12.186;2022-09-02T20:57:15;21.20;87.60
5621;DHT22;2832;50.864;12.186;2022-09-02T20:59:54;21.10;87.60
5621;DHT22;2832;50.864;12.186;2022-09-02T21:02:29;21.10;87.90
5621;DHT22;2832;50.864;12.186;2022-09-02T21:05:02;21.10;88.00
5621;DHT22;2832;50.864;12.186;2022-09-02T21:07:33;21.10;88.20
5621;DHT22;2832;50.864;12.186;2022-09-02T21:10:07;21.10;88.30
5621;DHT22;2832;50.864;12.186;2022-09-02T21:12:42;21.10;88.40
5621;DHT22;2832;50.864;12.186;2022-09-02T21:15:25;21.00;88.50
5621;DHT22;2832;50.864;12.186;2022-09-02T21:18:01;21.00;88.50
5621;DHT22;2832;50.864;12.186;2022-09-02T21:20:41;21.00;88.70
5621;DHT22;2832;50.864;12.186;2022-09-02T21:23:16;21.00;88.80
5621;DHT22;2832;50.864;12.186;2022-09-02T21:25:50;21.00;89.00
5621;DHT22;2832;50.864;12.186;2022-09-02T21:28:27;20.90;89.10
5621;DHT22;2832;50.864;12.186;2022-09-02T21:31:04;20.90;89.20
5621;DHT22;2832;50.864;12.186;2022-09-02T21:33:34;20.90;89.40
5621;DHT22;2832;50.864;12.186;2022-09-02T21:36:05;20.90;89.50
5621;DHT22;2832;50.864;12.186;2022-09-02T21:38:37;20.80;89.50
5621;DHT22;2832;50.864;12.186;2022-09-02T21:41:19;20.80;89.80
5621;DHT22;2832;50.864;12.186;2022-09-02T21:43:58;20.80;90.00
5621;DHT22;2832;50.864;12.186;2022-09-02T21:46:30;20.80;90.00
5621;DHT22;2832;50.864;12.186;2022-09-02T21:49:08;20.90;90.10
5621;DHT22;2832;50.864;12.186;2022-09-02T21:51:41;20.90;89.90
5621;DHT22;2832;50.864;12.186;2022-09-02T21:54:25;20.80;89.70
5621;DHT22;2832;50.864;12.186;2022-09-02T21:57:15;20.80;89.80
5621;DHT22;2832;50.864;12.186;2022-09-02T21:59:57;20.70;90.10
5621;DHT22;2832;50.864;12.186;2022-09-02T22:02:35;20.80;90.20
5621;DHT22;2832;50.864;12.186;2022-09-02T22:05:14;20.70;90.20
5621;DHT22;2832;50.864;12.186;2022-09-02T22:07:51;20.70;90.20
5621;DHT22;2832;50.864;12.186;2022-09-02T22:10:29;20.70;90.60
5621;DHT22;2832;50.864;12.186;2022-09-02T22:13:02;20.70;90.40
5621;DHT22;2832;50.864;12.186;2022-09-02T22:15:38;20.70;90.40
5621;DHT22;2832;50.864;12.186;2022-09-02T22:18:14;20.60;90.40
5621;DHT22;2832;50.864;12.186;2022-09-02T22:20:45;20.60;90.50
5621;DHT22;2832;50.864;12.186;2022-09-02T22:23:20;20.60;90.50
5621;DHT22;2832;50.864;12.186;2022-09-02T22:25:51;20.60;90.50
5621;DHT22;2832;50.864;12.186;2022-09-02T22:28:30;20.60;90.60
5621;DHT22;2832;50.864;12.186;2022-09-02T22:31:05;20.60;90.60
5621;DHT22;2832;50.864;12.186;2022-09-02T22:33:36;20.50;90.60
5621;DHT22;2832;50.864;12.186;2022-09-02T22:36:19;20.50;90.60
5621;DHT22;2832;50.864;12.186;2022-09-02T22:38:50;20.50;90.70
5621;DHT22;2832;50.864;12.186;2022-09-02T22:41:23;20.50;90.70
5621;DHT22;2832;50.864;12.186;2022-09-02T22:43:54;20.50;90.80
5621;DHT22;2832;50.864;12.186;2022-09-02T22:46:27;20.50;90.80
5621;DHT22;2832;50.864;12.186;2022-09-02T22:49:15;20.50;90.90
5621;DHT22;2832;50.864;12.186;2022-09-02T22:52:09;20.40;90.90
5621;DHT22;2832;50.864;12.186;2022-09-02T22:54:59;20.40;91.00
5621;DHT22;2832;50.864;12.186;2022-09-02T22:57:41;20.40;91.00
5621;DHT22;2832;50.864;12.186;2022-09-02T23:00:19;20.40;91.00
5621;DHT22;2832;50.864;12.186;2022-09-02T23:02:59;20.40;91.00
5621;DHT22;2832;50.864;12.186;2022-09-02T23:05:39;20.40;91.00
5621;DHT22;2832;50.864;12.186;2022-09-02T23:08:19;20.30;91.00
5621;DHT22;2832;50.864;12.186;2022-09-02T23:10:53;20.40;91.00
5621;DHT22;2832;50.864;12.186;2022-09-02T23:13:34;20.40;91.00
